Choctaw, Oklahoma
Current Conditions -  °F | °C
As of 7:21 AM on Wednesday 22 Oct 2014 (Local Time) from KTIK Reporting Station
Clear Clear  
Wind Chill: 57°   Ceiling: Unl
Heat Index: 57°   Visibility: 10mi
Dew Point: 55°   Wind: 5mph
Humidity: 94%   Direction: 160°SSE
Pressure: 30.12"   Gusts: NA
Location:  35.49°N, 97.27°W
Report Text: KTIK 221221Z 16004KT 10SM CLR 14/13 A3012 RMK AO2A $
Loading
Personal Weather Stations






























Interactive Weather Map
Tropical Storm Tracking
New forecast layout! Learn more

10-Day Weather Forecast

Advertisements
Track Severe Weather on mobile